sensor_id;sensor_type;location;lat;lon;timestamp;pressure;altitude;pressure_sealevel;temperature;humidity
48630;BME280;34426;52.180;4.462;2023-04-05T00:00:41;102657.91;;;3.90;75.84
48630;BME280;34426;52.180;4.462;2023-04-05T00:03:06;102648.06;;;3.87;75.89
48630;BME280;34426;52.180;4.462;2023-04-05T00:05:34;102643.56;;;3.86;76.41
48630;BME280;34426;52.180;4.462;2023-04-05T00:08:03;102637.00;;;3.79;76.20
48630;BME280;34426;52.180;4.462;2023-04-05T00:10:30;102635.31;;;3.70;76.57
48630;BME280;34426;52.180;4.462;2023-04-05T00:12:56;102637.41;;;3.68;77.08
48630;BME280;34426;52.180;4.462;2023-04-05T00:15:22;102636.38;;;3.61;76.58
48630;BME280;34426;52.180;4.462;2023-04-05T00:17:47;102634.31;;;3.55;76.96
48630;BME280;34426;52.180;4.462;2023-04-05T00:20:13;102641.22;;;3.59;77.26
48630;BME280;34426;52.180;4.462;2023-04-05T00:22:40;102638.47;;;3.59;77.27
48630;BME280;34426;52.180;4.462;2023-04-05T00:25:08;102627.56;;;3.57;77.30
48630;BME280;34426;52.180;4.462;2023-04-05T00:27:35;102629.66;;;3.47;77.67
48630;BME280;34426;52.180;4.462;2023-04-05T00:30:01;102627.59;;;3.49;77.89
48630;BME280;34426;52.180;4.462;2023-04-05T00:32:26;102632.25;;;3.49;77.86
48630;BME280;34426;52.180;4.462;2023-04-05T00:34:52;102626.59;;;3.42;78.06
48630;BME280;34426;52.180;4.462;2023-04-05T00:37:18;102627.31;;;3.36;78.25
48630;BME280;34426;52.180;4.462;2023-04-05T00:39:43;102616.44;;;3.34;77.95
48630;BME280;34426;52.180;4.462;2023-04-05T00:42:12;102628.53;;;3.33;78.75
48630;BME280;34426;52.180;4.462;2023-04-05T00:44:43;102615.59;;;3.26;79.04
48630;BME280;34426;52.180;4.462;2023-04-05T00:47:11;102620.25;;;3.25;78.95
48630;BME280;34426;52.180;4.462;2023-04-05T00:49:42;102608.84;;;3.28;79.34
48630;BME280;34426;52.180;4.462;2023-04-05T00:52:11;102621.97;;;3.26;79.27
48630;BME280;34426;52.180;4.462;2023-04-05T00:54:40;102611.63;;;3.20;79.19
48630;BME280;34426;52.180;4.462;2023-04-05T00:57:06;102611.28;;;3.15;79.34
48630;BME280;34426;52.180;4.462;2023-04-05T00:59:32;102608.00;;;3.12;80.07
48630;BME280;34426;52.180;4.462;2023-04-05T01:02:04;102596.06;;;3.11;79.88
48630;BME280;34426;52.180;4.462;2023-04-05T01:04:31;102590.38;;;3.05;80.21
48630;BME280;34426;52.180;4.462;2023-04-05T01:07:04;102603.22;;;2.97;80.48
48630;BME280;34426;52.180;4.462;2023-04-05T01:09:41;102598.56;;;2.90;80.49
48630;BME280;34426;52.180;4.462;2023-04-05T01:12:20;102596.13;;;2.87;80.81
48630;BME280;34426;52.180;4.462;2023-04-05T01:14:48;102589.22;;;2.91;80.56
48630;BME280;34426;52.180;4.462;2023-04-05T01:17:15;102587.16;;;2.85;80.56
48630;BME280;34426;52.180;4.462;2023-04-05T01:19:41;102596.16;;;2.79;81.21
48630;BME280;34426;52.180;4.462;2023-04-05T01:22:26;102600.13;;;2.84;80.83
48630;BME280;34426;52.180;4.462;2023-04-05T01:25:21;102592.34;;;2.88;80.79
48630;BME280;34426;52.180;4.462;2023-04-05T01:28:11;102589.06;;;2.84;80.79
48630;BME280;34426;52.180;4.462;2023-04-05T01:30:48;102583.00;;;2.89;80.80
48630;BME280;34426;52.180;4.462;2023-04-05T01:33:22;102579.56;;;2.87;81.08
48630;BME280;34426;52.180;4.462;2023-04-05T01:35:51;102578.00;;;2.84;81.08
48630;BME280;34426;52.180;4.462;2023-04-05T01:38:22;102578.88;;;2.85;81.17
48630;BME280;34426;52.180;4.462;2023-04-05T01:40:49;102573.69;;;2.82;81.54
48630;BME280;34426;52.180;4.462;2023-04-05T01:43:16;102574.72;;;2.81;81.68
48630;BME280;34426;52.180;4.462;2023-04-05T01:45:46;102577.50;;;2.81;81.92
48630;BME280;34426;52.180;4.462;2023-04-05T01:48:13;102571.97;;;2.81;81.97
48630;BME280;34426;52.180;4.462;2023-04-05T01:50:38;102565.06;;;2.77;82.10
48630;BME280;34426;52.180;4.462;2023-04-05T01:53:07;102563.34;;;2.76;82.13
48630;BME280;34426;52.180;4.462;2023-04-05T01:55:32;102565.41;;;2.74;82.47
48630;BME280;34426;52.180;4.462;2023-04-05T01:58:01;102563.84;;;2.71;82.41
48630;BME280;34426;52.180;4.462;2023-04-05T02:00:26;102557.47;;;2.71;82.55
48630;BME280;34426;52.180;4.462;2023-04-05T02:02:53;102552.97;;;2.70;82.64
48630;BME280;34426;52.180;4.462;2023-04-05T02:05:19;102546.59;;;2.69;82.53
48630;BME280;34426;52.180;4.462;2023-04-05T02:07:44;102546.06;;;2.65;82.67
48630;BME280;34426;52.180;4.462;2023-04-05T02:10:10;102533.66;;;2.61;82.69
48630;BME280;34426;52.180;4.462;2023-04-05T02:12:35;102532.78;;;2.61;82.99
48630;BME280;34426;52.180;4.462;2023-04-05T02:15:01;102539.19;;;2.61;82.60
48630;BME280;34426;52.180;4.462;2023-04-05T02:17:27;102526.41;;;2.60;82.67
48630;BME280;34426;52.180;4.462;2023-04-05T02:19:54;102527.13;;;2.54;82.70
48630;BME280;34426;52.180;4.462;2023-04-05T02:22:19;102526.25;;;2.54;82.89
48630;BME280;34426;52.180;4.462;2023-04-05T02:24:45;102527.47;;;2.51;82.72
48630;BME280;34426;52.180;4.462;2023-04-05T02:27:18;102535.41;;;2.54;82.48
48630;BME280;34426;52.180;4.462;2023-04-05T02:29:44;102525.06;;;2.56;82.63
48630;BME280;34426;52.180;4.462;2023-04-05T02:32:09;102539.91;;;2.55;82.66
48630;BME280;34426;52.180;4.462;2023-04-05T02:34:35;102522.47;;;2.55;82.24
48630;BME280;34426;52.180;4.462;2023-04-05T02:37:02;102525.06;;;2.56;82.18
48630;BME280;34426;52.180;4.462;2023-04-05T02:39:30;102529.38;;;2.51;81.45
48630;BME280;34426;52.180;4.462;2023-04-05T02:41:56;102527.13;;;2.46;82.07
48630;BME280;34426;52.180;4.462;2023-04-05T02:44:21;102533.00;;;2.43;82.21
48630;BME280;34426;52.180;4.462;2023-04-05T02:46:47;102525.75;;;2.42;81.74
48630;BME280;34426;52.180;4.462;2023-04-05T02:49:12;102525.91;;;2.41;81.78
48630;BME280;34426;52.180;4.462;2023-04-05T02:51:38;102522.97;;;2.42;81.62
48630;BME280;34426;52.180;4.462;2023-04-05T02:54:05;102520.22;;;2.34;81.50
48630;BME280;34426;52.180;4.462;2023-04-05T02:56:36;102514.34;;;2.37;81.56
48630;BME280;34426;52.180;4.462;2023-04-05T02:59:01;102516.25;;;2.37;81.40
48630;BME280;34426;52.180;4.462;2023-04-05T03:01:27;102516.78;;;2.32;81.25
48630;BME280;34426;52.180;4.462;2023-04-05T03:03:52;102512.97;;;2.33;81.48
48630;BME280;34426;52.180;4.462;2023-04-05T03:06:18;102514.69;;;2.26;81.55
48630;BME280;34426;52.180;4.462;2023-04-05T03:08:43;102514.34;;;2.21;82.11
48630;BME280;34426;52.180;4.462;2023-04-05T03:11:11;102507.44;;;2.17;81.89
48630;BME280;34426;52.180;4.462;2023-04-05T03:13:37;102511.94;;;2.18;82.43
48630;BME280;34426;52.180;4.462;2023-04-05T03:16:03;102506.63;;;2.16;82.64
48630;BME280;34426;52.180;4.462;2023-04-05T03:18:29;102514.53;;;2.19;82.44
48630;BME280;34426;52.180;4.462;2023-04-05T03:20:55;102520.06;;;2.11;82.45
48630;BME280;34426;52.180;4.462;2023-04-05T03:23:20;102517.81;;;2.07;82.83
48630;BME280;34426;52.180;4.462;2023-04-05T03:25:46;102508.31;;;2.01;82.87
48630;BME280;34426;52.180;4.462;2023-04-05T03:28:13;102508.31;;;2.01;83.46
48630;BME280;34426;52.180;4.462;2023-04-05T03:30:38;102504.00;;;1.98;83.05
48630;BME280;34426;52.180;4.462;2023-04-05T03:33:06;102508.13;;;1.94;83.53
48630;BME280;34426;52.180;4.462;2023-04-05T03:35:31;102506.22;;;1.87;83.57
48630;BME280;34426;52.180;4.462;2023-04-05T03:37:59;102496.06;;;1.87;84.16
48630;BME280;34426;52.180;4.462;2023-04-05T03:40:24;102496.06;;;1.95;84.26
48630;BME280;34426;52.180;4.462;2023-04-05T03:42:50;102489.53;;;1.96;83.90
48630;BME280;34426;52.180;4.462;2023-04-05T03:45:20;102491.59;;;1.94;83.69
48630;BME280;34426;52.180;4.462;2023-04-05T03:47:45;102484.00;;;1.96;83.30
48630;BME280;34426;52.180;4.462;2023-04-05T03:50:11;102485.22;;;1.94;83.17
48630;BME280;34426;52.180;4.462;2023-04-05T03:52:36;102484.69;;;1.90;82.85
48630;BME280;34426;52.180;4.462;2023-04-05T03:55:04;102485.69;;;1.81;83.59
48630;BME280;34426;52.180;4.462;2023-04-05T03:57:30;102481.38;;;1.79;83.90
48630;BME280;34426;52.180;4.462;2023-04-05T03:59:56;102479.50;;;1.71;83.54
48630;BME280;34426;52.180;4.462;2023-04-05T04:02:22;102486.22;;;1.69;84.05
48630;BME280;34426;52.180;4.462;2023-04-05T04:04:48;102491.88;;;1.59;84.00
48630;BME280;34426;52.180;4.462;2023-04-05T04:07:13;102490.16;;;1.58;84.28
48630;BME280;34426;52.180;4.462;2023-04-05T04:09:39;102475.84;;;1.54;84.27
48630;BME280;34426;52.180;4.462;2023-04-05T04:12:05;102477.75;;;1.54;84.52
48630;BME280;34426;52.180;4.462;2023-04-05T04:14:30;102481.00;;;1.49;84.79
48630;BME280;34426;52.180;4.462;2023-04-05T04:16:56;102483.06;;;1.47;84.73
48630;BME280;34426;52.180;4.462;2023-04-05T04:19:23;102487.38;;;1.50;85.06
48630;BME280;34426;52.180;4.462;2023-04-05T04:21:48;102485.97;;;1.46;85.25
48630;BME280;34426;52.180;4.462;2023-04-05T04:24:13;102481.88;;;1.50;85.06
48630;BME280;34426;52.180;4.462;2023-04-05T04:26:39;102477.41;;;1.57;85.45
48630;BME280;34426;52.180;4.462;2023-04-05T04:29:04;102479.81;;;1.60;85.26
48630;BME280;34426;52.180;4.462;2023-04-05T04:31:30;102473.44;;;1.59;85.29
48630;BME280;34426;52.180;4.462;2023-04-05T04:33:55;102478.13;;;1.67;85.02
48630;BME280;34426;52.180;4.462;2023-04-05T04:36:22;102466.22;;;1.66;84.83
48630;BME280;34426;52.180;4.462;2023-04-05T04:38:48;102471.06;;;1.73;84.53
48630;BME280;34426;52.180;4.462;2023-04-05T04:41:13;102474.66;;;1.81;84.19
48630;BME280;34426;52.180;4.462;2023-04-05T04:43:39;102473.47;;;1.92;83.54
48630;BME280;34426;52.180;4.462;2023-04-05T04:46:04;102474.00;;;1.95;83.30
48630;BME280;34426;52.180;4.462;2023-04-05T04:48:30;102474.34;;;2.00;83.37
48630;BME280;34426;52.180;4.462;2023-04-05T04:50:55;102469.53;;;2.03;82.56
48630;BME280;34426;52.180;4.462;2023-04-05T04:53:22;102472.81;;;2.06;82.23
48630;BME280;34426;52.180;4.462;2023-04-05T04:55:48;102474.19;;;2.10;82.12
48630;BME280;34426;52.180;4.462;2023-04-05T04:58:13;102469.53;;;2.03;82.07
48630;BME280;34426;52.180;4.462;2023-04-05T05:00:39;102464.34;;;1.91;82.29
48630;BME280;34426;52.180;4.462;2023-04-05T05:03:06;102474.50;;;1.91;82.60
48630;BME280;34426;52.180;4.462;2023-04-05T05:05:31;102475.19;;;1.93;82.48
48630;BME280;34426;52.180;4.462;2023-04-05T05:07:57;102479.16;;;1.90;82.56
48630;BME280;34426;52.180;4.462;2023-04-05T05:10:26;102474.31;;;1.84;82.90
48630;BME280;34426;52.180;4.462;2023-04-05T05:12:52;102475.69;;;1.80;83.24
48630;BME280;34426;52.180;4.462;2023-04-05T05:15:18;102479.16;;;1.82;83.55
48630;BME280;34426;52.180;4.462;2023-04-05T05:17:43;102483.97;;;1.80;83.57
48630;BME280;34426;52.180;4.462;2023-04-05T05:20:10;102486.03;;;1.78;83.25
48630;BME280;34426;52.180;4.462;2023-04-05T05:22:36;102487.41;;;1.74;83.69
48630;BME280;34426;52.180;4.462;2023-04-05T05:25:01;102491.22;;;1.81;83.47
48630;BME280;34426;52.180;4.462;2023-04-05T05:27:28;102484.50;;;1.84;83.56
48630;BME280;34426;52.180;4.462;2023-04-05T05:29:54;102491.75;;;1.85;83.89
48630;BME280;34426;52.180;4.462;2023-04-05T05:32:19;102496.91;;;1.88;83.62
48630;BME280;34426;52.180;4.462;2023-04-05T05:34:45;102500.19;;;1.91;83.71
48630;BME280;34426;52.180;4.462;2023-04-05T05:37:10;102494.00;;;1.97;83.32
48630;BME280;34426;52.180;4.462;2023-04-05T05:39:36;102497.81;;;2.05;83.55
48630;BME280;34426;52.180;4.462;2023-04-05T05:42:01;102495.91;;;2.05;83.59
48630;BME280;34426;52.180;4.462;2023-04-05T05:44:28;102495.41;;;2.10;83.50
48630;BME280;34426;52.180;4.462;2023-04-05T05:46:54;102508.69;;;2.14;83.31
48630;BME280;34426;52.180;4.462;2023-04-05T05:49:19;102504.69;;;2.17;83.51
48630;BME280;34426;52.180;4.462;2023-04-05T05:51:45;102505.38;;;2.19;83.68
48630;BME280;34426;52.180;4.462;2023-04-05T05:54:11;102500.91;;;2.26;83.48
48630;BME280;34426;52.180;4.462;2023-04-05T05:56:36;102507.78;;;2.30;83.47
48630;BME280;34426;52.180;4.462;2023-04-05T05:59:01;102503.31;;;2.37;83.48
48630;BME280;34426;52.180;4.462;2023-04-05T06:01:28;102497.44;;;2.40;83.71
48630;BME280;34426;52.180;4.462;2023-04-05T06:03:54;102501.59;;;2.44;83.54
48630;BME280;34426;52.180;4.462;2023-04-05T06:06:20;102501.41;;;2.46;83.41
48630;BME280;34426;52.180;4.462;2023-04-05T06:08:45;102495.72;;;2.55;83.36
48630;BME280;34426;52.180;4.462;2023-04-05T06:11:16;102488.59;;;2.61;83.08
48630;BME280;34426;52.180;4.462;2023-04-05T06:13:42;102480.66;;;2.66;83.08
48630;BME280;34426;52.180;4.462;2023-04-05T06:16:07;102489.28;;;2.71;83.03
48630;BME280;34426;52.180;4.462;2023-04-05T06:18:34;102485.63;;;2.79;82.73
48630;BME280;34426;52.180;4.462;2023-04-05T06:20:59;102483.88;;;2.86;82.34
48630;BME280;34426;52.180;4.462;2023-04-05T06:23:25;102483.19;;;2.92;82.40
48630;BME280;34426;52.180;4.462;2023-04-05T06:25:54;102476.25;;;2.96;82.33
48630;BME280;34426;52.180;4.462;2023-04-05T06:28:20;102474.13;;;3.06;81.76
48630;BME280;34426;52.180;4.462;2023-04-05T06:30:48;102478.31;;;3.02;81.16
48630;BME280;34426;52.180;4.462;2023-04-05T06:33:14;102479.63;;;3.14;81.09
48630;BME280;34426;52.180;4.462;2023-04-05T06:35:41;102475.09;;;3.21;80.96
48630;BME280;34426;52.180;4.462;2023-04-05T06:38:06;102482.50;;;3.29;80.74
48630;BME280;34426;52.180;4.462;2023-04-05T06:40:31;102486.81;;;3.31;80.29
48630;BME280;34426;52.180;4.462;2023-04-05T06:42:59;102480.91;;;3.34;80.54
48630;BME280;34426;52.180;4.462;2023-04-05T06:45:24;102489.19;;;3.43;80.39
48630;BME280;34426;52.180;4.462;2023-04-05T06:47:50;102488.06;;;3.52;80.48
48630;BME280;34426;52.180;4.462;2023-04-05T06:50:15;102486.47;;;3.57;79.35
48630;BME280;34426;52.180;4.462;2023-04-05T06:52:42;102475.91;;;3.61;78.74
48630;BME280;34426;52.180;4.462;2023-04-05T06:55:15;102474.81;;;3.70;78.90
48630;BME280;34426;52.180;4.462;2023-04-05T06:57:41;102474.28;;;3.75;77.88
48630;BME280;34426;52.180;4.462;2023-04-05T07:00:07;102478.16;;;3.88;75.76
48630;BME280;34426;52.180;4.462;2023-04-05T07:02:33;102479.31;;;3.94;74.62
48630;BME280;34426;52.180;4.462;2023-04-05T07:04:59;102481.22;;;3.93;74.75
48630;BME280;34426;52.180;4.462;2023-04-05T07:07:24;102485.28;;;4.06;74.85
48630;BME280;34426;52.180;4.462;2023-04-05T07:09:51;102481.41;;;4.15;72.85
48630;BME280;34426;52.180;4.462;2023-04-05T07:12:16;102483.44;;;4.21;71.40
48630;BME280;34426;52.180;4.462;2023-04-05T07:14:45;102480.59;;;4.29;70.07
48630;BME280;34426;52.180;4.462;2023-04-05T07:17:10;102480.22;;;4.32;69.43
48630;BME280;34426;52.180;4.462;2023-04-05T07:19:35;102471.66;;;4.56;67.37
48630;BME280;34426;52.180;4.462;2023-04-05T07:22:01;102478.44;;;4.54;67.68
48630;BME280;34426;52.180;4.462;2023-04-05T07:24:26;102472.25;;;4.66;65.72
48630;BME280;34426;52.180;4.462;2023-04-05T07:26:53;102478.66;;;4.67;66.07
48630;BME280;34426;52.180;4.462;2023-04-05T07:29:19;102473.97;;;4.67;66.70
48630;BME280;34426;52.180;4.462;2023-04-05T07:31:44;102471.19;;;4.82;65.59
48630;BME280;34426;52.180;4.462;2023-04-05T07:34:09;102468.06;;;5.00;63.89
48630;BME280;34426;52.180;4.462;2023-04-05T07:36:35;102466.44;;;5.06;63.26
48630;BME280;34426;52.180;4.462;2023-04-05T07:39:00;102461.22;;;5.32;60.88
48630;BME280;34426;52.180;4.462;2023-04-05T07:41:27;102449.25;;;5.31;62.18
48630;BME280;34426;52.180;4.462;2023-04-05T07:43:54;102450.88;;;5.41;60.96
48630;BME280;34426;52.180;4.462;2023-04-05T07:46:20;102455.38;;;5.42;60.95
48630;BME280;34426;52.180;4.462;2023-04-05T07:48:45;102458.25;;;5.33;61.47
48630;BME280;34426;52.180;4.462;2023-04-05T07:51:11;102454.53;;;5.26;62.73
48630;BME280;34426;52.180;4.462;2023-04-05T07:53:36;102460.25;;;5.40;62.03
48630;BME280;34426;52.180;4.462;2023-04-05T07:56:03;102441.97;;;5.66;59.94
48630;BME280;34426;52.180;4.462;2023-04-05T07:58:28;102449.22;;;5.61;60.70
48630;BME280;34426;52.180;4.462;2023-04-05T08:00:59;102444.94;;;5.65;61.32
48630;BME280;34426;52.180;4.462;2023-04-05T08:03:25;102446.56;;;5.74;61.06
48630;BME280;34426;52.180;4.462;2023-04-05T08:05:50;102449.13;;;5.76;59.99
48630;BME280;34426;52.180;4.462;2023-04-05T08:08:16;102444.88;;;5.94;57.77
48630;BME280;34426;52.180;4.462;2023-04-05T08:10:41;102445.66;;;5.88;58.55
48630;BME280;34426;52.180;4.462;2023-04-05T08:13:06;102443.28;;;6.07;57.70
48630;BME280;34426;52.180;4.462;2023-04-05T08:15:34;102444.09;;;6.00;58.22
48630;BME280;34426;52.180;4.462;2023-04-05T08:18:01;102438.00;;;5.90;59.44
48630;BME280;34426;52.180;4.462;2023-04-05T08:20:27;102438.38;;;5.87;60.34
48630;BME280;34426;52.180;4.462;2023-04-05T08:22:55;102435.19;;;6.12;58.38
48630;BME280;34426;52.180;4.462;2023-04-05T08:25:21;102439.19;;;6.03;58.91
48630;BME280;34426;52.180;4.462;2023-04-05T08:27:46;102436.59;;;6.22;57.10
48630;BME280;34426;52.180;4.462;2023-04-05T08:30:12;102432.03;;;6.15;58.15
48630;BME280;34426;52.180;4.462;2023-04-05T08:32:40;102438.63;;;6.14;59.43
48630;BME280;34426;52.180;4.462;2023-04-05T08:35:08;102443.25;;;6.28;59.46
48630;BME280;34426;52.180;4.462;2023-04-05T08:37:33;102428.69;;;6.47;57.08
48630;BME280;34426;52.180;4.462;2023-04-05T08:39:59;102431.47;;;6.54;56.11
48630;BME280;34426;52.180;4.462;2023-04-05T08:42:28;102433.91;;;6.63;55.18
48630;BME280;34426;52.180;4.462;2023-04-05T08:44:56;102433.16;;;6.76;53.86
48630;BME280;34426;52.180;4.462;2023-04-05T08:47:24;102427.03;;;6.94;54.08
48630;BME280;34426;52.180;4.462;2023-04-05T08:49:49;102430.28;;;7.04;54.23
48630;BME280;34426;52.180;4.462;2023-04-05T08:52:17;102436.31;;;7.08;53.21
48630;BME280;34426;52.180;4.462;2023-04-05T08:54:43;102435.94;;;7.17;52.88
48630;BME280;34426;52.180;4.462;2023-04-05T08:57:09;102432.34;;;7.37;52.98
48630;BME280;34426;52.180;4.462;2023-04-05T08:59:37;102429.59;;;7.43;51.89
48630;BME280;34426;52.180;4.462;2023-04-05T09:02:14;102434.53;;;7.41;52.23
48630;BME280;34426;52.180;4.462;2023-04-05T09:04:43;102426.19;;;7.48;51.95
48630;BME280;34426;52.180;4.462;2023-04-05T09:07:10;102423.38;;;7.41;52.77
48630;BME280;34426;52.180;4.462;2023-04-05T09:09:41;102425.72;;;7.38;52.68
48630;BME280;34426;52.180;4.462;2023-04-05T09:12:08;102427.88;;;7.42;53.61
48630;BME280;34426;52.180;4.462;2023-04-05T09:14:35;102429.25;;;7.66;52.18
48630;BME280;34426;52.180;4.462;2023-04-05T09:17:01;102418.97;;;7.60;52.12
48630;BME280;34426;52.180;4.462;2023-04-05T09:19:27;102422.41;;;7.82;52.16
48630;BME280;34426;52.180;4.462;2023-04-05T09:22:03;102411.28;;;7.88;51.00
48630;BME280;34426;52.180;4.462;2023-04-05T09:24:30;102418.59;;;8.02;50.04
48630;BME280;34426;52.180;4.462;2023-04-05T09:27:04;102419.47;;;8.16;49.95
48630;BME280;34426;52.180;4.462;2023-04-05T09:29:30;102411.97;;;8.17;49.59
48630;BME280;34426;52.180;4.462;2023-04-05T09:31:55;102415.84;;;8.22;49.42
48630;BME280;34426;52.180;4.462;2023-04-05T09:34:21;102405.75;;;8.28;49.35
48630;BME280;34426;52.180;4.462;2023-04-05T09:36:48;102402.34;;;8.39;47.87
48630;BME280;34426;52.180;4.462;2023-04-05T09:39:13;102408.97;;;8.51;48.28
48630;BME280;34426;52.180;4.462;2023-04-05T09:41:39;102408.56;;;8.54;46.19
48630;BME280;34426;52.180;4.462;2023-04-05T09:44:06;102404.69;;;8.62;47.67
48630;BME280;34426;52.180;4.462;2023-04-05T09:46:32;102408.94;;;8.71;47.97
48630;BME280;34426;52.180;4.462;2023-04-05T09:48:59;102404.00;;;8.66;48.74
48630;BME280;34426;52.180;4.462;2023-04-05T09:51:31;102409.78;;;8.72;47.87
48630;BME280;34426;52.180;4.462;2023-04-05T09:53:57;102403.13;;;8.86;46.77
48630;BME280;34426;52.180;4.462;2023-04-05T09:56:23;102400.06;;;9.00;47.19
48630;BME280;34426;52.180;4.462;2023-04-05T09:58:50;102398.25;;;9.26;46.12
48630;BME280;34426;52.180;4.462;2023-04-05T10:01:18;102387.44;;;9.43;44.52
48630;BME280;34426;52.180;4.462;2023-04-05T10:03:46;102388.69;;;9.47;42.93
48630;BME280;34426;52.180;4.462;2023-04-05T10:06:11;102383.75;;;9.49;43.34
48630;BME280;34426;52.180;4.462;2023-04-05T10:08:37;102386.88;;;9.59;42.79
48630;BME280;34426;52.180;4.462;2023-04-05T10:11:04;102379.97;;;9.68;43.40
48630;BME280;34426;52.180;4.462;2023-04-05T10:13:30;102381.13;;;9.85;43.99
48630;BME280;34426;52.180;4.462;2023-04-05T10:15:59;102369.31;;;9.83;43.84
48630;BME280;34426;52.180;4.462;2023-04-05T10:18:31;102369.97;;;9.85;44.04
48630;BME280;34426;52.180;4.462;2023-04-05T10:21:03;102376.50;;;9.97;44.11
48630;BME280;34426;52.180;4.462;2023-04-05T10:23:30;102373.78;;;9.91;44.16
48630;BME280;34426;52.180;4.462;2023-04-05T10:26:03;102378.06;;;9.93;43.11
48630;BME280;34426;52.180;4.462;2023-04-05T10:28:34;102377.13;;;9.99;41.92
48630;BME280;34426;52.180;4.462;2023-04-05T10:31:09;102369.28;;;10.15;46.25
48630;BME280;34426;52.180;4.462;2023-04-05T10:33:39;102371.84;;;10.16;40.92
48630;BME280;34426;52.180;4.462;2023-04-05T10:36:10;102365.00;;;10.12;40.43
48630;BME280;34426;52.180;4.462;2023-04-05T10:38:51;102370.13;;;10.15;39.75
48630;BME280;34426;52.180;4.462;2023-04-05T10:41:22;102369.50;;;10.20;43.04
48630;BME280;34426;52.180;4.462;2023-04-05T10:43:48;102359.81;;;10.16;41.26
48630;BME280;34426;52.180;4.462;2023-04-05T10:46:18;102373.09;;;10.27;41.66
48630;BME280;34426;52.180;4.462;2023-04-05T10:48:51;102359.72;;;10.29;41.08
48630;BME280;34426;52.180;4.462;2023-04-05T10:51:19;102361.00;;;10.33;42.35
48630;BME280;34426;52.180;4.462;2023-04-05T10:53:49;102358.91;;;10.47;42.49
48630;BME280;34426;52.180;4.462;2023-04-05T10:56:16;102354.66;;;10.62;40.22
48630;BME280;34426;52.180;4.462;2023-04-05T10:58:43;102351.41;;;10.65;44.04
48630;BME280;34426;52.180;4.462;2023-04-05T11:01:11;102354.91;;;10.79;42.49
48630;BME280;34426;52.180;4.462;2023-04-05T11:03:46;102345.78;;;10.84;39.84
48630;BME280;34426;52.180;4.462;2023-04-05T11:06:29;102345.41;;;10.80;41.96
48630;BME280;34426;52.180;4.462;2023-04-05T11:09:00;102338.16;;;10.91;39.63
48630;BME280;34426;52.180;4.462;2023-04-05T11:11:25;102348.84;;;10.82;39.72
48630;BME280;34426;52.180;4.462;2023-04-05T11:13:52;102338.25;;;11.03;39.79
48630;BME280;34426;52.180;4.462;2023-04-05T11:16:19;102341.59;;;11.11;41.77
48630;BME280;34426;52.180;4.462;2023-04-05T11:18:46;102333.34;;;11.16;41.22
48630;BME280;34426;52.180;4.462;2023-04-05T11:21:20;102342.91;;;11.39;41.64
48630;BME280;34426;52.180;4.462;2023-04-05T11:24:00;102339.03;;;11.70;40.40
48630;BME280;34426;52.180;4.462;2023-04-05T11:26:30;102335.19;;;11.94;38.06
48630;BME280;34426;52.180;4.462;2023-04-05T11:28:56;102325.84;;;12.12;39.14
48630;BME280;34426;52.180;4.462;2023-04-05T11:31:22;102328.53;;;12.30;39.76
48630;BME280;34426;52.180;4.462;2023-04-05T11:33:56;102332.44;;;12.41;39.00
48630;BME280;34426;52.180;4.462;2023-04-05T11:36:36;102331.94;;;12.32;36.66
48630;BME280;34426;52.180;4.462;2023-04-05T11:39:27;102323.88;;;12.01;36.37
48630;BME280;34426;52.180;4.462;2023-04-05T11:42:00;102318.75;;;12.21;39.95
48630;BME280;34426;52.180;4.462;2023-04-05T11:44:26;102313.53;;;12.36;36.46
48630;BME280;34426;52.180;4.462;2023-04-05T11:46:52;102322.91;;;12.07;36.52
48630;BME280;34426;52.180;4.462;2023-04-05T11:49:20;102313.16;;;12.21;37.27
48630;BME280;34426;52.180;4.462;2023-04-05T11:51:47;102313.41;;;12.31;37.93
48630;BME280;34426;52.180;4.462;2023-04-05T11:54:27;102301.69;;;12.34;35.81
48630;BME280;34426;52.180;4.462;2023-04-05T11:56:54;102294.00;;;12.18;35.99
48630;BME280;34426;52.180;4.462;2023-04-05T11:59:27;102289.00;;;12.43;36.00
48630;BME280;34426;52.180;4.462;2023-04-05T12:01:57;102285.03;;;12.68;36.45
48630;BME280;34426;52.180;4.462;2023-04-05T12:04:24;102286.31;;;12.37;35.07
48630;BME280;34426;52.180;4.462;2023-04-05T12:07:08;102281.69;;;12.42;37.14
48630;BME280;34426;52.180;4.462;2023-04-05T12:09:33;102275.22;;;12.53;36.03
48630;BME280;34426;52.180;4.462;2023-04-05T12:11:59;102277.13;;;12.64;37.21
48630;BME280;34426;52.180;4.462;2023-04-05T12:14:24;102277.31;;;12.86;35.88
48630;BME280;34426;52.180;4.462;2023-04-05T12:16:51;102270.22;;;12.95;35.07
48630;BME280;34426;52.180;4.462;2023-04-05T12:19:17;102280.06;;;12.58;39.71
48630;BME280;34426;52.180;4.462;2023-04-05T12:21:45;102280.72;;;12.25;40.67
48630;BME280;34426;52.180;4.462;2023-04-05T12:24:10;102282.53;;;12.31;41.91
48630;BME280;34426;52.180;4.462;2023-04-05T12:26:37;102278.63;;;12.32;41.04
48630;BME280;34426;52.180;4.462;2023-04-05T12:29:05;102274.84;;;12.50;40.54
48630;BME280;34426;52.180;4.462;2023-04-05T12:31:34;102274.69;;;12.56;41.64
48630;BME280;34426;52.180;4.462;2023-04-05T12:34:00;102267.66;;;12.54;39.79
48630;BME280;34426;52.180;4.462;2023-04-05T12:36:26;102272.72;;;12.57;41.16
48630;BME280;34426;52.180;4.462;2023-04-05T12:38:56;102271.06;;;12.44;41.03
48630;BME280;34426;52.180;4.462;2023-04-05T12:41:29;102269.25;;;12.38;40.64
48630;BME280;34426;52.180;4.462;2023-04-05T12:43:57;102268.13;;;12.51;40.23
48630;BME280;34426;52.180;4.462;2023-04-05T12:46:37;102268.75;;;12.93;40.74
48630;BME280;34426;52.180;4.462;2023-04-05T12:49:03;102266.13;;;13.03;39.89
48630;BME280;34426;52.180;4.462;2023-04-05T12:51:30;102261.94;;;12.89;39.37
48630;BME280;34426;52.180;4.462;2023-04-05T12:54:00;102258.13;;;12.95;39.29
48630;BME280;34426;52.180;4.462;2023-04-05T12:56:29;102258.91;;;13.07;38.82
48630;BME280;34426;52.180;4.462;2023-04-05T12:58:55;102255.44;;;13.28;39.31